Time;durP1;ratioP1;P1;durP2;ratioP2;P2;SDS_P1;SDS_P2;PMS_P1;PMS_P2;Temp;Humidity;BMP_temperature;BMP_pressure;BME280_temperature;BME280_humidity;BME280_pressure;Samples;Min_cycle;Max_cycle;Signal;HPM_P1;HPM_P2
2023/06/13 00:00:14;;;;;;;7.82;5.53;;;18.00;60.80;;;;;;5026639;28;20075;-68
2023/06/13 00:02:40;;;;;;;7.35;4.93;;;18.10;61.20;;;;;;5027980;28;20568;-68
2023/06/13 00:05:07;;;;;;;7.78;5.60;;;18.10;61.40;;;;;;5014180;28;20106;-69
2023/06/13 00:07:36;;;;;;;7.97;6.30;;;18.00;61.30;;;;;;5021646;28;20040;-68
2023/06/13 00:10:06;;;;;;;9.65;5.60;;;18.00;61.10;;;;;;5045570;28;20123;-68
2023/06/13 00:12:33;;;;;;;7.78;5.60;;;18.00;61.10;;;;;;5027428;28;20060;-69
2023/06/13 00:15:01;;;;;;;7.22;6.03;;;18.00;61.50;;;;;;5025590;28;20052;-69
2023/06/13 00:17:29;;;;;;;9.30;5.90;;;18.00;61.80;;;;;;5030030;28;20041;-69
2023/06/13 00:19:55;;;;;;;8.43;6.13;;;17.90;62.20;;;;;;5043821;28;20068;-69
2023/06/13 00:22:22;;;;;;;8.57;6.03;;;17.80;62.20;;;;;;5021301;28;20041;-69
2023/06/13 00:24:48;;;;;;;6.95;5.57;;;17.80;62.20;;;;;;5054478;28;20108;-68
2023/06/13 00:27:13;;;;;;;9.10;6.55;;;17.80;62.50;;;;;;5045044;28;20048;-69
2023/06/13 00:29:39;;;;;;;7.70;5.95;;;17.80;62.60;;;;;;5045876;28;20250;-69
2023/06/13 00:32:05;;;;;;;9.23;6.43;;;17.80;62.70;;;;;;5010013;28;20048;-70
2023/06/13 00:34:31;;;;;;;8.77;6.30;;;17.80;62.40;;;;;;5051604;28;20051;-69
2023/06/13 00:36:59;;;;;;;8.05;6.50;;;17.80;62.60;;;;;;5039056;28;20388;-69
2023/06/13 00:39:25;;;;;;;8.88;6.22;;;17.80;62.70;;;;;;5045040;28;20449;-67
2023/06/13 00:41:50;;;;;;;7.72;5.57;;;17.80;63.00;;;;;;5011260;28;20186;-69
2023/06/13 00:44:19;;;;;;;9.95;6.22;;;17.80;62.80;;;;;;5033175;28;20085;-69
2023/06/13 00:46:45;;;;;;;10.77;6.32;;;17.70;63.10;;;;;;5028665;28;20098;-69
2023/06/13 00:49:13;;;;;;;9.52;6.05;;;17.70;63.40;;;;;;5008419;28;20080;-69
2023/06/13 00:51:40;;;;;;;7.18;5.80;;;17.70;63.50;;;;;;5028034;28;20631;-69
2023/06/13 00:54:08;;;;;;;8.13;6.43;;;17.60;63.80;;;;;;5029511;28;20097;-69
2023/06/13 00:56:34;;;;;;;6.65;5.35;;;17.60;63.60;;;;;;5037026;28;20056;-70
2023/06/13 00:59:01;;;;;;;7.20;5.70;;;17.60;63.90;;;;;;5031483;28;20053;-69
2023/06/13 01:01:27;;;;;;;7.03;5.32;;;17.60;64.10;;;;;;5040096;28;20052;-69
2023/06/13 01:03:55;;;;;;;8.05;5.45;;;17.50;64.20;;;;;;5017382;28;20032;-69
2023/06/13 01:06:24;;;;;;;7.88;5.93;;;17.50;64.60;;;;;;5044644;28;20464;-69
2023/06/13 01:08:52;;;;;;;7.68;5.40;;;17.50;64.80;;;;;;5027427;28;20052;-69
2023/06/13 01:11:38;;;;;;;9.82;6.13;;;17.40;65.00;;;;;;5033060;28;20033;-69
2023/06/13 01:14:15;;;;;;;6.45;5.68;;;17.40;65.10;;;;;;5044866;28;20036;-69
2023/06/13 01:16:48;;;;;;;7.28;5.40;;;17.40;65.30;;;;;;5039167;28;20052;-70
2023/06/13 01:19:40;;;;;;;8.00;6.00;;;17.30;66.00;;;;;;5040276;28;20052;-69
2023/06/13 01:22:18;;;;;;;9.88;6.13;;;17.30;65.40;;;;;;5030083;28;20837;-69
2023/06/13 01:25:02;;;;;;;9.73;6.45;;;17.20;65.70;;;;;;5043751;28;20040;-69
2023/06/13 01:27:29;;;;;;;8.80;5.60;;;17.20;66.10;;;;;;5043089;28;20041;-69
2023/06/13 01:29:56;;;;;;;7.95;6.45;;;17.10;66.20;;;;;;5020678;28;20131;-69
2023/06/13 01:32:23;;;;;;;9.30;5.88;;;17.10;66.30;;;;;;5045455;28;20412;-69
2023/06/13 01:34:49;;;;;;;8.43;5.80;;;17.10;66.30;;;;;;5045036;28;20102;-69
2023/06/13 01:37:15;;;;;;;9.50;6.47;;;17.00;66.30;;;;;;5029017;28;20035;-69
2023/06/13 01:39:43;;;;;;;8.13;6.40;;;17.00;66.20;;;;;;5040374;28;20036;-69
2023/06/13 01:42:08;;;;;;;7.20;6.03;;;17.00;66.20;;;;;;5044781;28;20485;-69
2023/06/13 01:44:34;;;;;;;10.68;6.57;;;17.00;66.30;;;;;;5044719;28;20090;-69
2023/06/13 01:47:05;;;;;;;9.30;6.28;;;17.00;66.60;;;;;;5043991;28;20040;-69
2023/06/13 01:49:48;;;;;;;7.28;5.80;;;17.00;66.90;;;;;;5044773;28;20045;-69
2023/06/13 01:52:40;;;;;;;6.80;6.03;;;16.90;66.80;;;;;;5045728;28;20527;-69
2023/06/13 01:55:16;;;;;;;7.45;6.38;;;16.90;66.70;;;;;;5045279;28;20064;-69
2023/06/13 01:58:03;;;;;;;8.55;5.95;;;16.80;67.00;;;;;;5044110;28;20123;-69
2023/06/13 02:00:30;;;;;;;8.13;6.57;;;16.80;67.20;;;;;;5060448;28;20417;-69
2023/06/13 02:02:57;;;;;;;10.52;6.55;;;16.80;67.40;;;;;;5042284;28;20450;-69
2023/06/13 02:05:26;;;;;;;9.63;6.43;;;16.70;67.40;;;;;;5028889;28;20734;-69
2023/06/13 02:07:53;;;;;;;7.57;6.00;;;16.70;67.60;;;;;;5027185;28;20076;-69
2023/06/13 02:10:19;;;;;;;6.60;5.90;;;16.70;67.70;;;;;;5031812;28;20412;-69
2023/06/13 02:12:45;;;;;;;10.98;6.93;;;16.70;67.60;;;;;;5031723;28;20052;-69
2023/06/13 02:15:11;;;;;;;8.02;6.28;;;16.70;67.80;;;;;;5030427;28;20048;-69
2023/06/13 02:17:37;;;;;;;9.55;6.85;;;16.60;67.90;;;;;;5027249;28;20048;-69
2023/06/13 02:20:04;;;;;;;6.95;6.03;;;16.60;68.20;;;;;;5028802;28;20098;-68
2023/06/13 02:22:30;;;;;;;9.50;6.47;;;16.50;68.50;;;;;;5048239;28;20044;-69
2023/06/13 02:24:57;;;;;;;6.82;5.90;;;16.50;68.80;;;;;;5043427;28;20665;-68
2023/06/13 02:27:23;;;;;;;9.13;6.45;;;16.40;69.10;;;;;;5031056;28;20052;-69
2023/06/13 02:29:48;;;;;;;9.75;6.85;;;16.30;69.00;;;;;;5030345;28;20621;-69
2023/06/13 02:32:15;;;;;;;12.65;6.80;;;16.30;69.10;;;;;;5044425;28;20048;-69
2023/06/13 02:34:41;;;;;;;8.77;6.80;;;16.30;69.30;;;;;;5023030;28;20045;-69
2023/06/13 02:37:08;;;;;;;7.43;6.57;;;16.30;69.30;;;;;;5044336;28;20044;-69
2023/06/13 02:39:34;;;;;;;7.95;6.32;;;16.30;69.60;;;;;;5041998;28;20048;-69
2023/06/13 02:41:59;;;;;;;9.00;6.38;;;16.30;69.70;;;;;;5045904;28;20037;-68
2023/06/13 02:44:28;;;;;;;7.43;6.40;;;16.30;69.80;;;;;;5029842;28;20123;-69
2023/06/13 02:46:54;;;;;;;7.50;6.43;;;16.20;69.90;;;;;;5026570;28;20048;-69
2023/06/13 02:49:20;;;;;;;8.10;6.35;;;16.20;70.00;;;;;;5026113;28;20059;-69
2023/06/13 02:51:45;;;;;;;11.82;6.22;;;16.10;70.10;;;;;;5034998;28;20033;-69
2023/06/13 02:54:11;;;;;;;7.10;6.00;;;16.10;70.40;;;;;;5042684;28;20037;-69
2023/06/13 02:56:38;;;;;;;9.73;5.63;;;16.00;70.50;;;;;;5031023;28;20048;-69
2023/06/13 02:59:04;;;;;;;7.85;5.90;;;15.90;70.70;;;;;;5011414;28;20041;-69
2023/06/13 03:01:30;;;;;;;7.35;6.18;;;15.90;71.20;;;;;;5028643;28;20029;-69
2023/06/13 03:03:56;;;;;;;7.72;5.95;;;15.70;71.40;;;;;;5046226;28;20040;-69
2023/06/13 03:06:24;;;;;;;8.25;6.50;;;15.70;71.80;;;;;;5032604;28;20552;-69
2023/06/13 03:08:52;;;;;;;10.80;6.22;;;15.60;72.30;;;;;;5031878;28;20795;-69
2023/06/13 03:11:18;;;;;;;9.07;7.05;;;15.50;72.80;;;;;;5042023;28;20136;-69
2023/06/13 03:13:45;;;;;;;9.50;6.60;;;15.40;73.30;;;;;;5044571;28;20049;-69
2023/06/13 03:16:11;;;;;;;9.48;6.53;;;15.30;73.80;;;;;;5046732;28;20048;-69
2023/06/13 03:18:37;;;;;;;9.82;6.50;;;15.20;74.40;;;;;;5044930;28;20055;-69
2023/06/13 03:21:04;;;;;;;9.98;6.68;;;15.10;74.80;;;;;;5034278;28;20047;-69
2023/06/13 03:23:30;;;;;;;7.18;6.40;;;15.00;75.40;;;;;;5063074;28;20052;-69
2023/06/13 03:25:55;;;;;;;9.57;6.80;;;15.00;75.80;;;;;;5066772;28;20481;-68
2023/06/13 03:28:22;;;;;;;8.40;6.80;;;15.00;76.20;;;;;;5036773;28;20036;-69
2023/06/13 03:30:48;;;;;;;9.18;6.72;;;15.00;76.60;;;;;;5050452;28;20055;-69
2023/06/13 03:33:14;;;;;;;8.98;5.82;;;15.00;76.90;;;;;;5067646;28;20074;-68
2023/06/13 03:35:40;;;;;;;9.98;6.18;;;14.90;77.00;;;;;;5065395;28;20172;-69
2023/06/13 03:38:06;;;;;;;8.57;6.72;;;14.90;77.60;;;;;;5049774;28;20047;-68
2023/06/13 03:40:32;;;;;;;7.70;6.22;;;14.90;77.90;;;;;;5080419;28;20543;-69
2023/06/13 03:42:58;;;;;;;10.32;6.28;;;14.90;78.00;;;;;;5066535;28;20526;-69
2023/06/13 03:45:25;;;;;;;8.40;6.35;;;14.90;78.20;;;;;;5082391;28;21142;-69
2023/06/13 03:47:51;;;;;;;8.88;6.22;;;14.90;78.40;;;;;;5078212;28;20048;-69
2023/06/13 03:50:17;;;;;;;8.30;6.45;;;14.90;78.50;;;;;;5084476;28;20063;-69
2023/06/13 03:52:43;;;;;;;9.18;6.25;;;14.90;78.70;;;;;;5079715;28;20044;-69
2023/06/13 03:55:10;;;;;;;8.23;5.85;;;14.90;79.00;;;;;;5083012;28;20504;-68
2023/06/13 03:57:35;;;;;;;9.52;6.55;;;15.00;79.20;;;;;;5060020;28;20047;-68
2023/06/13 04:00:01;;;;;;;10.70;6.45;;;15.00;79.30;;;;;;5065371;28;20044;-69
2023/06/13 04:02:27;;;;;;;9.27;6.10;;;15.00;79.30;;;;;;5072623;28;20096;-69
2023/06/13 04:04:56;;;;;;;10.38;6.43;;;15.00;79.50;;;;;;5057285;28;20299;-69
2023/06/13 04:07:23;;;;;;;7.60;6.28;;;14.90;79.80;;;;;;5068332;28;20036;-69
2023/06/13 04:09:49;;;;;;;9.15;6.32;;;15.00;80.00;;;;;;5050239;28;20458;-69
2023/06/13 04:12:18;;;;;;;9.63;6.47;;;15.00;80.50;;;;;;5080981;28;20044;-69
2023/06/13 04:14:43;;;;;;;8.70;6.13;;;15.00;80.90;;;;;;5067173;28;20048;-69
2023/06/13 04:17:09;;;;;;;8.55;6.05;;;15.00;81.10;;;;;;5044952;28;20374;-68
2023/06/13 04:19:35;;;;;;;10.63;6.05;;;15.00;80.50;;;;;;5064927;28;20475;-69
2023/06/13 04:22:05;;;;;;;10.23;6.20;;;15.10;80.60;;;;;;5045787;28;20533;-69
2023/06/13 04:24:31;;;;;;;13.10;6.03;;;15.10;80.80;;;;;;5058763;28;20133;-69
2023/06/13 04:26:57;;;;;;;8.75;5.78;;;15.10;80.90;;;;;;5044695;28;20076;-69
2023/06/13 04:29:25;;;;;;;6.40;5.70;;;15.20;80.80;;;;;;5063862;28;20036;-69
2023/06/13 04:31:50;;;;;;;8.68;6.05;;;15.20;80.60;;;;;;5044478;28;20071;-69
2023/06/13 04:34:20;;;;;;;8.90;6.20;;;15.30;80.70;;;;;;5062746;28;20169;-69
2023/06/13 04:36:47;;;;;;;8.48;6.00;;;15.30;80.90;;;;;;5047627;28;20186;-69
2023/06/13 04:39:13;;;;;;;9.73;6.40;;;15.30;80.60;;;;;;5062076;28;20404;-69
2023/06/13 04:41:43;;;;;;;9.00;6.03;;;15.40;80.70;;;;;;5029550;28;20040;-69
2023/06/13 04:44:10;;;;;;;11.38;5.57;;;15.40;81.30;;;;;;5047846;28;20466;-69
2023/06/13 04:46:38;;;;;;;7.82;5.93;;;15.40;80.80;;;;;;5062766;28;20404;-69
2023/06/13 04:49:06;;;;;;;8.55;6.35;;;15.50;80.90;;;;;;5058283;28;20039;-71
2023/06/13 04:51:33;;;;;;;7.50;5.97;;;15.50;81.40;;;;;;5065467;28;20113;-69
2023/06/13 04:54:00;;;;;;;9.88;6.30;;;15.60;81.50;;;;;;5062293;28;20571;-69
2023/06/13 04:56:27;;;;;;;7.97;5.72;;;15.60;81.50;;;;;;5067580;28;20307;-69
2023/06/13 04:58:55;;;;;;;9.75;5.80;;;15.60;81.30;;;;;;5059094;28;20544;-69
2023/06/13 05:01:26;;;;;;;7.32;5.82;;;15.70;81.30;;;;;;5044563;28;20500;-70
2023/06/13 05:03:53;;;;;;;8.70;6.20;;;15.80;81.40;;;;;;5043722;28;20503;-70
2023/06/13 05:06:20;;;;;;;7.53;5.70;;;15.80;81.80;;;;;;5054094;28;20047;-69
2023/06/13 05:08:46;;;;;;;10.82;5.60;;;15.80;82.00;;;;;;5060161;28;20051;-69
2023/06/13 05:11:12;;;;;;;8.57;5.47;;;15.90;81.20;;;;;;5063054;28;20412;-70
2023/06/13 05:13:38;;;;;;;8.57;5.80;;;16.00;81.20;;;;;;5044995;28;20115;-69
2023/06/13 05:16:04;;;;;;;9.63;5.95;;;16.00;82.00;;;;;;5057691;28;20118;-69
2023/06/13 05:18:31;;;;;;;8.63;5.80;;;16.10;81.70;;;;;;5058507;28;20090;-69
2023/06/13 05:20:58;;;;;;;9.30;5.78;;;16.20;80.90;;;;;;5066337;28;20052;-69
2023/06/13 05:23:25;;;;;;;8.27;5.57;;;16.20;81.80;;;;;;5063459;28;20221;-69
2023/06/13 05:25:51;;;;;;;8.70;5.70;;;16.20;80.40;;;;;;5061214;28;20043;-69
2023/06/13 05:28:18;;;;;;;7.97;6.53;;;16.30;80.90;;;;;;5047084;28;20059;-69
2023/06/13 05:30:44;;;;;;;8.25;5.40;;;16.40;81.00;;;;;;5028355;28;20040;-69
2023/06/13 05:33:14;;;;;;;9.15;5.32;;;16.50;80.00;;;;;;5058325;28;20052;-70
2023/06/13 05:35:40;;;;;;;8.02;5.93;;;16.50;79.20;;;;;;5049826;28;20079;-70
2023/06/13 05:38:09;;;;;;;8.85;5.95;;;16.60;79.10;;;;;;5059843;28;20500;-69
2023/06/13 05:40:37;;;;;;;8.05;5.82;;;16.70;79.50;;;;;;5031562;28;20040;-69
2023/06/13 05:43:04;;;;;;;9.10;5.68;;;16.70;78.60;;;;;;5060696;28;20377;-69
2023/06/13 05:45:30;;;;;;;7.22;5.40;;;16.80;78.00;;;;;;5046580;28;20071;-69
2023/06/13 05:47:56;;;;;;;10.98;5.43;;;16.90;77.90;;;;;;5066509;28;20072;-70
2023/06/13 05:50:21;;;;;;;6.68;5.35;;;17.00;78.70;;;;;;5062286;28;20097;-73
2023/06/13 05:52:47;;;;;;;7.05;5.78;;;17.00;78.30;;;;;;5062385;28;20511;-73
2023/06/13 05:55:13;;;;;;;11.93;5.47;;;17.10;77.60;;;;;;5048508;28;20074;-69
2023/06/13 05:57:44;;;;;;;8.90;5.28;;;17.20;77.80;;;;;;5043659;28;20095;-70
2023/06/13 06:00:13;;;;;;;9.10;5.32;;;17.30;77.90;;;;;;5054520;28;20079;-70
2023/06/13 06:02:44;;;;;;;8.18;5.80;;;17.30;77.20;;;;;;5040646;28;20332;-71
2023/06/13 06:05:11;;;;;;;7.85;6.32;;;17.40;77.10;;;;;;5039347;28;20048;-71
2023/06/13 06:07:44;;;;;;;9.73;5.88;;;17.50;76.50;;;;;;5062490;28;20083;-71
2023/06/13 06:10:11;;;;;;;8.73;5.65;;;17.60;77.50;;;;;;5027420;28;20040;-72
2023/06/13 06:12:39;;;;;;;9.40;6.30;;;17.60;79.90;;;;;;5078320;28;20036;-72
2023/06/13 06:15:06;;;;;;;7.72;5.70;;;17.70;77.00;;;;;;5042868;28;20519;-72
2023/06/13 06:17:31;;;;;;;8.18;5.30;;;17.70;76.30;;;;;;5045034;28;20234;-72
2023/06/13 06:19:58;;;;;;;9.40;5.90;;;17.80;75.90;;;;;;5054431;28;20493;-72
2023/06/13 06:22:23;;;;;;;8.55;5.45;;;17.80;77.00;;;;;;5031967;28;20044;-72
2023/06/13 06:24:49;;;;;;;7.55;6.07;;;17.90;76.20;;;;;;5026500;28;20424;-72
2023/06/13 06:27:15;;;;;;;10.65;6.35;;;17.90;74.80;;;;;;5045390;28;20220;-71
2023/06/13 06:29:44;;;;;;;8.63;5.40;;;18.00;76.40;;;;;;5043851;28;20051;-71
2023/06/13 06:32:10;;;;;;;9.35;5.90;;;18.00;76.00;;;;;;5061192;28;20161;-71
2023/06/13 06:34:37;;;;;;;6.80;6.05;;;18.10;76.00;;;;;;5045106;28;20051;-71
2023/06/13 06:37:03;;;;;;;9.93;6.20;;;18.20;75.70;;;;;;5053294;28;20279;-71
2023/06/13 06:39:30;;;;;;;10.93;6.03;;;18.20;74.80;;;;;;5043854;28;20419;-71
2023/06/13 06:41:56;;;;;;;7.82;5.80;;;18.30;74.00;;;;;;5043681;28;20036;-72
2023/06/13 06:44:21;;;;;;;9.48;5.88;;;18.30;72.70;;;;;;5043415;28;20048;-71
2023/06/13 06:46:47;;;;;;;8.55;5.78;;;18.30;73.30;;;;;;5038332;28;20041;-71
2023/06/13 06:49:13;;;;;;;8.63;5.50;;;18.40;73.50;;;;;;5039493;28;20058;-71
2023/06/13 06:51:39;;;;;;;8.90;5.72;;;18.50;72.80;;;;;;5055083;28;20036;-71
2023/06/13 06:54:05;;;;;;;9.00;5.63;;;18.50;72.00;;;;;;5026164;28;20766;-72
2023/06/13 06:56:30;;;;;;;5.93;5.32;;;18.60;71.00;;;;;;5042991;28;20041;-71
2023/06/13 06:58:56;;;;;;;10.60;5.78;;;18.70;71.30;;;;;;5027994;28;20043;-72
2023/06/13 07:01:23;;;;;;;7.28;5.07;;;18.80;69.80;;;;;;5047084;28;20063;-71
2023/06/13 07:03:48;;;;;;;9.52;5.50;;;18.90;70.10;;;;;;5029726;28;20086;-72
2023/06/13 07:06:14;;;;;;;8.35;5.10;;;19.00;69.80;;;;;;5038921;28;20068;-71
2023/06/13 07:08:40;;;;;;;7.80;4.80;;;19.10;69.00;;;;;;5067422;28;20048;-72
2023/06/13 07:11:06;;;;;;;7.40;4.93;;;19.30;69.10;;;;;;5050270;28;20416;-72
2023/06/13 07:13:32;;;;;;;5.85;4.25;;;19.50;67.20;;;;;;5043371;28;20235;-72
2023/06/13 07:15:59;;;;;;;6.20;4.25;;;19.60;65.40;;;;;;5034213;28;20103;-71
2023/06/13 07:18:26;;;;;;;6.47;4.45;;;19.70;65.60;;;;;;5048604;28;20036;-72
2023/06/13 07:20:55;;;;;;;6.68;4.03;;;19.90;64.50;;;;;;5060253;28;20090;-72
2023/06/13 07:23:20;;;;;;;7.20;4.68;;;20.00;64.40;;;;;;5051676;28;20080;-73
2023/06/13 07:25:46;;;;;;;6.65;4.28;;;20.20;67.10;;;;;;5062430;28;20070;-72
2023/06/13 07:28:12;;;;;;;6.05;4.50;;;20.30;65.00;;;;;;5063712;28;20054;-72
2023/06/13 07:30:38;;;;;;;7.00;4.00;;;20.40;64.40;;;;;;5049136;28;20510;-71
2023/06/13 07:33:04;;;;;;;5.25;3.83;;;20.60;64.90;;;;;;5047378;28;20047;-71
2023/06/13 07:35:32;;;;;;;6.35;4.10;;;20.70;64.20;;;;;;5046913;28;20107;-72
2023/06/13 07:37:58;;;;;;;7.30;3.92;;;20.90;64.50;;;;;;5030623;28;20468;-71
2023/06/13 07:40:24;;;;;;;10.20;4.15;;;21.00;62.70;;;;;;5046263;28;20539;-71
2023/06/13 07:42:50;;;;;;;6.72;3.78;;;21.10;62.00;;;;;;5049782;28;20040;-72
2023/06/13 07:45:17;;;;;;;5.18;3.92;;;21.20;62.00;;;;;;5049621;28;20040;-71
2023/06/13 07:47:43;;;;;;;4.85;3.75;;;21.40;62.40;;;;;;5049250;28;20055;-71
2023/06/13 07:50:09;;;;;;;6.97;3.95;;;21.60;63.60;;;;;;5049878;28;20548;-71
2023/06/13 07:52:35;;;;;;;5.72;3.85;;;21.70;63.50;;;;;;5062309;28;20067;-71
2023/06/13 07:55:01;;;;;;;5.65;3.65;;;21.90;63.40;;;;;;5046182;28;20660;-71
2023/06/13 07:57:27;;;;;;;6.38;4.05;;;22.00;61.20;;;;;;5065327;28;20060;-71
2023/06/13 07:59:55;;;;;;;7.95;3.80;;;22.10;60.80;;;;;;5033662;28;20040;-71
2023/06/13 08:02:21;;;;;;;5.35;3.70;;;22.20;61.00;;;;;;5082283;28;20151;-71
2023/06/13 08:04:47;;;;;;;6.18;3.38;;;22.30;59.00;;;;;;5047794;28;20101;-72
2023/06/13 08:07:13;;;;;;;6.10;3.65;;;22.30;59.80;;;;;;5049531;28;20043;-72
2023/06/13 08:09:38;;;;;;;6.18;3.75;;;22.40;59.40;;;;;;5046525;28;20054;-72
2023/06/13 08:12:06;;;;;;;6.88;3.40;;;22.40;58.80;;;;;;5056633;28;20055;-72
2023/06/13 08:14:32;;;;;;;6.47;3.60;;;22.50;60.10;;;;;;5046553;28;20122;-72
2023/06/13 08:16:57;;;;;;;5.68;3.38;;;22.60;59.20;;;;;;5064605;28;20134;-72
2023/06/13 08:19:23;;;;;;;5.85;3.50;;;22.70;57.90;;;;;;5031449;28;20119;-72
2023/06/13 08:21:49;;;;;;;7.43;3.75;;;22.90;58.90;;;;;;5050640;28;20056;-72
2023/06/13 08:24:15;;;;;;;5.70;3.53;;;23.00;58.20;;;;;;5048080;28;20109;-72
2023/06/13 08:26:41;;;;;;;6.43;3.78;;;23.10;58.60;;;;;;5066505;28;20044;-72
2023/06/13 08:29:11;;;;;;;5.13;3.78;;;23.10;55.20;;;;;;5047085;28;20523;-71
2023/06/13 08:31:40;;;;;;;4.88;3.30;;;23.20;53.70;;;;;;5031425;28;20040;-72
2023/06/13 08:34:06;;;;;;;4.30;2.83;;;23.10;53.80;;;;;;5062683;28;20050;-72
2023/06/13 08:36:35;;;;;;;5.53;3.03;;;23.10;54.90;;;;;;5044384;28;20747;-72
2023/06/13 08:39:03;;;;;;;6.13;3.50;;;23.20;56.40;;;;;;5064394;28;20076;-72
2023/06/13 08:41:30;;;;;;;4.20;2.60;;;23.40;53.90;;;;;;5058972;28;20075;-71
2023/06/13 08:43:58;;;;;;;7.57;3.53;;;23.40;52.90;;;;;;5031512;28;20414;-71
2023/06/13 08:46:24;;;;;;;5.20;3.58;;;23.50;52.20;;;;;;5060317;28;20094;-71
2023/06/13 08:48:50;;;;;;;7.07;3.25;;;23.50;51.50;;;;;;5062339;28;20052;-72
2023/06/13 08:51:18;;;;;;;4.68;3.30;;;23.60;51.20;;;;;;5048291;28;20408;-72
2023/06/13 08:53:51;;;;;;;5.25;3.53;;;23.60;51.10;;;;;;5030675;28;20543;-71
2023/06/13 08:56:22;;;;;;;5.00;2.92;;;23.70;48.40;;;;;;5078798;28;20044;-71
2023/06/13 08:58:56;;;;;;;4.30;3.33;;;23.70;49.30;;;;;;5061166;28;20041;-71
2023/06/13 09:01:25;;;;;;;6.78;3.47;;;23.80;51.60;;;;;;5063371;28;20062;-72
2023/06/13 09:03:51;;;;;;;5.22;3.50;;;24.00;51.00;;;;;;5045182;28;20047;-71
2023/06/13 09:06:25;;;;;;;5.65;3.72;;;24.00;50.00;;;;;;5051023;28;20071;-71
2023/06/13 09:08:53;;;;;;;5.30;3.33;;;24.20;50.10;;;;;;5081670;28;20052;-71
2023/06/13 09:11:19;;;;;;;5.57;3.30;;;24.30;49.20;;;;;;5060455;28;20105;-71
2023/06/13 09:13:47;;;;;;;4.50;3.22;;;24.30;48.60;;;;;;5047165;28;20496;-71
2023/06/13 09:16:13;;;;;;;7.57;3.35;;;24.30;49.40;;;;;;5027620;28;20040;-71
2023/06/13 09:18:43;;;;;;;6.05;3.65;;;24.40;49.00;;;;;;5063249;28;20583;-71
2023/06/13 09:21:10;;;;;;;6.03;3.53;;;24.40;47.60;;;;;;5043689;28;20052;-71
2023/06/13 09:23:37;;;;;;;6.47;3.10;;;24.40;47.30;;;;;;5065578;28;20047;-71
2023/06/13 09:26:05;;;;;;;6.50;3.50;;;24.50;48.50;;;;;;5031637;28;20032;-71
2023/06/13 09:28:40;;;;;;;7.80;3.30;;;24.60;49.00;;;;;;5028450;28;20499;-71
2023/06/13 09:31:07;;;;;;;5.45;3.20;;;24.80;48.10;;;;;;5047818;28;20044;-71
2023/06/13 09:33:34;;;;;;;6.00;2.95;;;24.90;48.90;;;;;;5062637;28;20043;-71
2023/06/13 09:35:59;;;;;;;5.07;3.08;;;24.90;48.10;;;;;;5045336;28;20573;-70
2023/06/13 09:38:26;;;;;;;4.20;3.35;;;25.10;48.70;;;;;;5032710;28;20036;-70
2023/06/13 09:40:56;;;;;;;7.13;3.50;;;25.10;47.80;;;;;;5059955;28;20044;-71
2023/06/13 09:43:23;;;;;;;5.95;3.22;;;25.10;47.40;;;;;;5081232;28;20054;-71
2023/06/13 09:45:51;;;;;;;6.30;3.38;;;25.20;47.50;;;;;;5046150;28;20043;-71
2023/06/13 09:48:21;;;;;;;7.40;3.22;;;25.30;47.70;;;;;;5047600;28;20039;-71
2023/06/13 09:50:48;;;;;;;4.57;3.10;;;25.30;47.80;;;;;;5060387;28;20098;-71
2023/06/13 09:53:14;;;;;;;5.60;3.40;;;25.30;47.00;;;;;;5048230;28;20044;-71
2023/06/13 09:55:40;;;;;;;5.70;3.40;;;25.20;47.00;;;;;;5060980;28;20054;-71
2023/06/13 09:58:08;;;;;;;6.55;3.80;;;25.10;46.50;;;;;;5044279;28;20043;-71
2023/06/13 10:00:35;;;;;;;6.05;3.45;;;25.10;46.20;;;;;;5057926;28;20118;-72
2023/06/13 10:03:02;;;;;;;5.05;3.78;;;25.10;47.50;;;;;;5044990;28;20447;-71
2023/06/13 10:05:28;;;;;;;6.22;4.00;;;25.10;46.00;;;;;;5058910;28;20052;-71
2023/06/13 10:07:55;;;;;;;5.60;3.67;;;25.20;47.50;;;;;;5058541;28;20313;-71
2023/06/13 10:10:21;;;;;;;6.78;3.72;;;25.30;46.10;;;;;;5042268;28;20290;-72
2023/06/13 10:12:59;;;;;;;10.65;4.40;;;25.40;47.30;;;;;;5059416;28;20419;-71
2023/06/13 10:15:30;;;;;;;6.10;3.72;;;25.60;46.20;;;;;;5065335;28;20055;-71
2023/06/13 10:17:59;;;;;;;4.75;3.58;;;25.70;46.20;;;;;;5062421;28;20075;-71
2023/06/13 10:20:29;;;;;;;6.90;3.67;;;25.80;45.90;;;;;;5046607;28;20759;-72
2023/06/13 10:22:57;;;;;;;7.18;3.90;;;25.80;44.90;;;;;;5062455;28;20072;-71
2023/06/13 10:25:27;;;;;;;5.75;3.83;;;25.80;46.20;;;;;;5045972;28;20100;-71
2023/06/13 10:27:55;;;;;;;6.53;4.00;;;25.80;45.90;;;;;;5063124;28;20411;-71
2023/06/13 10:30:45;;;;;;;6.72;3.50;;;25.90;45.60;;;;;;5044443;28;20075;-71
2023/06/13 10:33:29;;;;;;;5.05;3.17;;;26.00;46.10;;;;;;5066720;28;20056;-71
2023/06/13 10:36:14;;;;;;;5.32;3.75;;;26.10;45.30;;;;;;5066925;28;20512;-71
2023/06/13 10:39:16;;;;;;;5.85;3.53;;;26.30;45.00;;;;;;5047641;28;20052;-77
2023/06/13 10:42:11;;;;;;;5.45;3.75;;;26.30;45.80;;;;;;5014216;28;20071;-77
2023/06/13 10:44:59;;;;;;;5.95;3.85;;;26.40;45.70;;;;;;5066557;28;20048;-77
2023/06/13 10:47:28;;;;;;;6.05;4.13;;;26.40;45.20;;;;;;5066211;28;20064;-77
2023/06/13 10:49:54;;;;;;;;;;;26.40;45.90;;;;;;5068211;28;20048;-76
2023/06/13 10:52:22;;;;;;;5.38;3.88;;;26.40;47.20;;;;;;5077052;28;20039;-76
2023/06/13 10:54:56;;;;;;;5.60;3.90;;;26.30;45.50;;;;;;5062851;28;20098;-76
2023/06/13 10:57:22;;;;;;;6.38;4.15;;;26.30;44.80;;;;;;5059554;28;20298;-76
2023/06/13 10:59:54;;;;;;;6.10;3.80;;;26.40;45.00;;;;;;5068254;28;20064;-76
2023/06/13 11:02:20;;;;;;;6.07;4.40;;;26.40;45.50;;;;;;5066309;28;20093;-75
2023/06/13 11:04:54;;;;;;;6.57;3.70;;;26.40;43.60;;;;;;5064772;28;20047;-76
2023/06/13 11:07:23;;;;;;;5.60;3.85;;;26.40;45.70;;;;;;5064188;28;20040;-76
2023/06/13 11:10:19;;;;;;;6.28;3.50;;;26.30;45.40;;;;;;5051817;28;20101;-77
2023/06/13 11:12:45;;;;;;;6.45;3.95;;;26.30;44.10;;;;;;5046177;28;20048;-77
2023/06/13 11:15:27;;;;;;;5.05;3.63;;;26.30;45.90;;;;;;5046637;28;20048;-74
2023/06/13 11:18:09;;;;;;;7.78;3.80;;;26.30;46.90;;;;;;5046567;28;20051;-74
2023/06/13 11:20:57;;;;;;;4.68;3.40;;;26.60;45.20;;;;;;5063567;28;20060;-74
2023/06/13 11:23:37;;;;;;;6.83;3.70;;;26.70;45.00;;;;;;5045643;28;20047;-69
2023/06/13 11:26:03;;;;;;;6.70;3.50;;;26.80;46.20;;;;;;5060150;28;20746;-69
2023/06/13 11:28:32;;;;;;;4.75;3.58;;;27.00;46.30;;;;;;5044336;28;20504;-70
2023/06/13 11:31:03;;;;;;;6.28;4.43;;;27.00;45.90;;;;;;5062263;28;20480;-69
2023/06/13 11:33:38;;;;;;;7.63;4.13;;;27.10;46.30;;;;;;5055915;28;20040;-69
2023/06/13 11:36:04;;;;;;;8.00;4.05;;;27.20;45.80;;;;;;5049578;28;20055;-69
2023/06/13 11:38:43;;;;;;;6.32;3.95;;;27.30;45.80;;;;;;5064008;28;20106;-70
2023/06/13 11:41:10;;;;;;;5.23;3.70;;;27.50;45.80;;;;;;5065768;28;20458;-70
2023/06/13 11:43:37;;;;;;;6.53;3.72;;;27.60;44.70;;;;;;5059326;28;20811;-70
2023/06/13 11:46:05;;;;;;;5.97;3.85;;;27.70;44.70;;;;;;5047801;28;20100;-69
2023/06/13 11:48:31;;;;;;;5.55;3.40;;;27.70;43.60;;;;;;5065109;28;20502;-69
2023/06/13 11:51:15;;;;;;;7.82;4.43;;;27.50;44.00;;;;;;5062068;28;20044;-70
2023/06/13 11:53:57;;;;;;;10.43;4.30;;;27.50;44.10;;;;;;5039011;28;20460;-70
2023/06/13 11:56:27;;;;;;;6.18;3.72;;;27.50;44.90;;;;;;5034653;28;20056;-69
2023/06/13 11:58:54;;;;;;;5.95;3.75;;;27.50;42.60;;;;;;5047381;28;20051;-69
2023/06/13 12:01:26;;;;;;;7.30;3.70;;;27.60;43.20;;;;;;5037781;28;20101;-71
2023/06/13 12:03:53;;;;;;;5.78;3.65;;;27.60;44.00;;;;;;5067699;28;20055;-69
2023/06/13 12:06:19;;;;;;;6.63;3.53;;;27.40;42.80;;;;;;5058671;28;20051;-70
2023/06/13 12:08:46;;;;;;;4.90;3.80;;;27.40;43.60;;;;;;5047856;28;20044;-70
2023/06/13 12:11:17;;;;;;;5.65;3.67;;;27.40;43.10;;;;;;5064154;28;20500;-69
2023/06/13 12:14:00;;;;;;;7.13;3.92;;;27.40;43.00;;;;;;5062337;28;20504;-70
2023/06/13 12:16:31;;;;;;;7.38;3.88;;;27.30;44.60;;;;;;5063242;28;20527;-70
2023/06/13 12:18:57;;;;;;;5.68;3.40;;;27.20;45.20;;;;;;5064468;28;20044;-70
2023/06/13 12:21:33;;;;;;;5.00;3.20;;;27.20;45.80;;;;;;5043399;28;20390;-70
2023/06/13 12:24:06;;;;;;;7.75;4.07;;;27.30;45.40;;;;;;5044928;28;20084;-70
2023/06/13 12:26:34;;;;;;;6.90;3.70;;;27.30;46.30;;;;;;5044694;28;20110;-70
2023/06/13 12:29:06;;;;;;;7.40;3.70;;;27.50;45.40;;;;;;5025522;28;20075;-70
2023/06/13 12:31:36;;;;;;;5.00;3.60;;;27.40;44.60;;;;;;5025431;28;20044;-70
2023/06/13 12:34:13;;;;;;;5.03;3.30;;;27.40;45.20;;;;;;5029508;28;20663;-70
2023/06/13 12:36:40;;;;;;;7.05;3.92;;;27.40;44.90;;;;;;5046418;28;20040;-70
2023/06/13 12:39:09;;;;;;;7.80;3.97;;;27.40;43.40;;;;;;4996761;28;20445;-70
2023/06/13 12:41:37;;;;;;;6.57;3.40;;;27.30;44.30;;;;;;5027941;28;20032;-70
2023/06/13 12:44:03;;;;;;;6.45;3.38;;;27.20;44.70;;;;;;5043694;28;20455;-70
2023/06/13 12:46:28;;;;;;;5.22;3.47;;;27.30;45.20;;;;;;5011804;28;20040;-71
2023/06/13 12:48:55;;;;;;;7.15;3.75;;;27.30;46.10;;;;;;5027977;28;20076;-70
2023/06/13 12:51:30;;;;;;;5.88;3.58;;;27.40;46.00;;;;;;5045761;28;20557;-70